Observation data for O'Donnell on 01/19/2019      Previous  Date  Next       Current Mesonet Observations  Soil Data  Daily Summary Page  Observations in Plain Language
KOES 190600Z 33024G30KT 03/M02 A3005 RMK A01 T00281018  RH  072%=      5-min Rain = 0
KOES 190605Z 33023G30KT 03/M02 A3005 RMK A01 T00281017  RH  073%=      5-min Rain = 0
KOES 190610Z 33024KT 03/M02 A3006 RMK A01 T00291016  RH  073%=      5-min Rain = 0
KOES 190615Z 33021G26KT 03/M02 A3006 RMK A01 T00291015  RH  073%=      5-min Rain = 0
KOES 190620Z 33022G31KT 03/M02 A3006 RMK A01 T00301016  RH  073%=      5-min Rain = 0
KOES 190625Z 34025G35KT 03/M02 A3007 RMK A01 T00301018  RH  071%=      5-min Rain = 0
KOES 190630Z 34028G36KT 03/M02 A3007 RMK A01 T00281017  RH  073%=      5-min Rain = 0
KOES 190635Z 34024G31KT 03/M02 A3007 RMK A01 T00271017  RH  074%=      5-min Rain = 0
KOES 190640Z 34026G32KT 03/M02 A3008 RMK A01 T00261016  RH  074%=      5-min Rain = 0
KOES 190645Z 34022G30KT 02/M01 A3008 RMK A01 T00241014  RH  076%=      5-min Rain = 0
KOES 190650Z 34020G27KT 02/M01 A3009 RMK A01 T00231012  RH  078%=      5-min Rain = 0
KOES 190655Z 35021G26KT 02/M01 A3009 RMK A01 T00211012  RH  079%=      5-min Rain = 0
KOES 190700Z 35018G23KT 02/M01 A3009 RMK A01 T00181013  RH  080%=      5-min Rain = 0
KOES 190705Z 34016KT 02/M01 A3009 RMK A01 T00171013  RH  081%=      5-min Rain = 0
KOES 190710Z 34016KT 02/M01 A3009 RMK A01 T00171013  RH  081%=      5-min Rain = 0
KOES 190715Z 33013KT 02/M01 A3009 RMK A01 T00161014  RH  081%=      5-min Rain = 0
KOES 190720Z 33015G22KT 02/M02 A3009 RMK A01 T00171016  RH  080%=      5-min Rain = 0
KOES 190725Z 33018G23KT 02/M02 A3009 RMK A01 T00191017  RH  078%=      5-min Rain = 0
KOES 190730Z 33017KT 02/M02 A3009 RMK A01 T00201017  RH  077%=      5-min Rain = 0
KOES 190735Z 33016G23KT 02/M02 A301 RMK A01 T00201016  RH  078%=      5-min Rain = 0
KOES 190740Z 32013G18KT 02/M02 A301 RMK A01 T00201016  RH  078%=      5-min Rain = 0
KOES 190745Z 32016G22KT 02/M02 A301 RMK A01 T00201015  RH  078%=      5-min Rain = 0
KOES 190750Z 33018G23KT 02/M02 A301 RMK A01 T00221017  RH  076%=      5-min Rain = 0
KOES 190755Z 33018KT 02/M02 A3011 RMK A01 T00231017  RH  076%=      5-min Rain = 0
KOES 190800Z 33020G27KT 02/M02 A3011 RMK A01 T00231018  RH  075%=      5-min Rain = 0
KOES 190805Z 33021G28KT 02/M02 A3011 RMK A01 T00241021  RH  073%=      5-min Rain = 0
KOES 190810Z 33021KT 02/M02 A3011 RMK A01 T00241022  RH  072%=      5-min Rain = 0
KOES 190815Z 33023G30KT 02/M03 A3012 RMK A01 T00231027  RH  070%=      5-min Rain = 0
KOES 190820Z 33021G27KT 02/M03 A3012 RMK A01 T00201029  RH  070%=      5-min Rain = 0
KOES 190825Z 33023KT 02/M03 A3012 RMK A01 T00191032  RH  070%=      5-min Rain = 0
KOES 190830Z 33022G28KT 02/M03 A3012 RMK A01 T00181033  RH  069%=      5-min Rain = 0
KOES 190835Z 33021KT 02/M03 A3013 RMK A01 T00171033  RH  070%=      5-min Rain = 0
KOES 190840Z 33019KT 02/M03 A3013 RMK A01 T00161032  RH  071%=      5-min Rain = 0
KOES 190845Z 33016KT 01/M03 A3013 RMK A01 T00141032  RH  072%=      5-min Rain = 0
KOES 190850Z 32019G24KT 01/M03 A3013 RMK A01 T00141031  RH  072%=      5-min Rain = 0
KOES 190855Z 33021G27KT 01/M03 A3013 RMK A01 T00141033  RH  071%=      5-min Rain = 0
KOES 190900Z 33021G27KT 01/M04 A3013 RMK A01 T00141035  RH  070%=      5-min Rain = 0
KOES 190905Z 33020G28KT 01/M04 A3013 RMK A01 T00141036  RH  070%=      5-min Rain = 0
KOES 190910Z 33018KT 01/M03 A3014 RMK A01 T00121034  RH  072%=      5-min Rain = 0
KOES 190915Z 32018G25KT 01/M03 A3014 RMK A01 T00111033  RH  073%=      5-min Rain = 0
KOES 190920Z 32019G26KT 01/M03 A3014 RMK A01 T00121034  RH  072%=      5-min Rain = 0
KOES 190925Z 33019G24KT 01/M04 A3014 RMK A01 T00121035  RH  071%=      5-min Rain = 0
KOES 190930Z 33015KT 01/M04 A3015 RMK A01 T00111035  RH  072%=      5-min Rain = 0
KOES 190935Z 32014KT 01/M03 A3015 RMK A01 T00091034  RH  073%=      5-min Rain = 0
KOES 190940Z 32015G20KT 01/M03 A3015 RMK A01 T00081034  RH  074%=      5-min Rain = 0
KOES 190945Z 32018G23KT 01/M04 A3015 RMK A01 T00091035  RH  073%=      5-min Rain = 0
KOES 190950Z 33016KT 01/M04 A3016 RMK A01 T00091036  RH  073%=      5-min Rain = 0
KOES 190955Z 32017G23KT 01/M04 A3016 RMK A01 T00081036  RH  073%=      5-min Rain = 0
KOES 191000Z 32017G22KT 01/M04 A3016 RMK A01 T00081036  RH  073%=      5-min Rain = 0
KOES 191005Z 32016KT 01/M04 A3017 RMK A01 T00081036  RH  073%=      5-min Rain = 0
KOES 191010Z 32014G20KT 01/M04 A3017 RMK A01 T00071036  RH  073%=      5-min Rain = 0
KOES 191015Z 33019G24KT 01/M04 A3017 RMK A01 T00071037  RH  072%=      5-min Rain = 0
KOES 191020Z 33018G23KT 01/M04 A3018 RMK A01 T00091039  RH  071%=      5-min Rain = 0
KOES 191025Z 33016KT 01/M04 A3018 RMK A01 T00081039  RH  071%=      5-min Rain = 0
KOES 191030Z 33015KT 01/M04 A3019 RMK A01 T00071039  RH  072%=      5-min Rain = 0
KOES 191035Z 33015KT 01/M04 A3019 RMK A01 T00061040  RH  072%=      5-min Rain = 0
KOES 191040Z 34015KT 01/M04 A3019 RMK A01 T00061040  RH  072%=      5-min Rain = 0
KOES 191045Z 34014KT 01/M04 A3019 RMK A01 T00051040  RH  072%=      5-min Rain = 0
KOES 191050Z 33014KT 00/M04 A3019 RMK A01 T00041039  RH  073%=      5-min Rain = 0
KOES 191055Z 33014KT 00/M04 A3019 RMK A01 T00041039  RH  073%=      5-min Rain = 0
KOES 191100Z 33015G20KT 01/M04 A3019 RMK A01 T00051039  RH  073%=      5-min Rain = 0
KOES 191105Z 33015KT 01/M04 A302 RMK A01 T00061038  RH  073%=      5-min Rain = 0
KOES 191110Z 34015KT 01/M04 A3019 RMK A01 T00061038  RH  073%=      5-min Rain = 0
KOES 191115Z 34016KT 01/M04 A3019 RMK A01 T00061038  RH  073%=      5-min Rain = 0
KOES 191120Z 33015G21KT 01/M04 A302 RMK A01 T00061038  RH  073%=      5-min Rain = 0
KOES 191125Z 33015G20KT 01/M04 A302 RMK A01 T00061037  RH  073%=      5-min Rain = 0
KOES 191130Z 34016G21KT 01/M04 A302 RMK A01 T00071037  RH  073%=      5-min Rain = 0
KOES 191135Z 33016G23KT 01/M04 A302 RMK A01 T00071037  RH  073%=      5-min Rain = 0
KOES 191140Z 33017G23KT 01/M04 A302 RMK A01 T00081037  RH  072%=      5-min Rain = 0
KOES 191145Z 34015G21KT 01/M04 A302 RMK A01 T00081037  RH  072%=      5-min Rain = 0
KOES 191150Z 34017KT 01/M04 A302 RMK A01 T00091038  RH  072%=      5-min Rain = 0
KOES 191155Z 34015G20KT 01/M04 A302 RMK A01 T00091038  RH  071%=      5-min Rain = 0
KOES 191200Z 34015KT 01/M04 A302 RMK A01 T00091038  RH  071%=      5-min Rain = 0
KOES 191205Z 34013KT 01/M04 A302 RMK A01 T00071038  RH  072%=      5-min Rain = 0
KOES 191210Z 34013KT 01/M04 A3021 RMK A01 T00061038  RH  072%=      5-min Rain = 0
KOES 191215Z 35014KT 01/M04 A302 RMK A01 T00061039  RH  072%=      5-min Rain = 0
KOES 191220Z 35013KT 01/M04 A302 RMK A01 T00061039  RH  072%=      5-min Rain = 0
KOES 191225Z 35013KT 01/M04 A302 RMK A01 T00051039  RH  073%=      5-min Rain = 0
KOES 191230Z 35012G17KT 01/M04 A302 RMK A01 T00051039  RH  073%=      5-min Rain = 0
KOES 191235Z 35012KT 00/M04 A3021 RMK A01 T00041039  RH  073%=      5-min Rain = 0
KOES 191240Z 34011KT 00/M04 A3021 RMK A01 T00031039  RH  074%=      5-min Rain = 0
KOES 191245Z 34010KT 00/M04 A3022 RMK A01 T00021039  RH  074%=      5-min Rain = 0
KOES 191250Z 34011KT 00/M04 A3022 RMK A01 T00011039  RH  075%=      5-min Rain = 0
KOES 191255Z 34011KT 00/M04 A3022 RMK A01 T00011039  RH  075%=      5-min Rain = 0
KOES 191300Z 33010KT 00/M04 A3023 RMK A01 T00011039  RH  075%=      5-min Rain = 0
KOES 191305Z 34010KT 00/04 A3023 RMK A01 T00-00-39  RH  075%=      5-min Rain = 0
KOES 191310Z 34009KT M00/M04 A3023 RMK A01 T10021040  RH  076%=      5-min Rain = 0
KOES 191315Z 33008KT M00/M04 A3023 RMK A01 T10041040  RH  077%=      5-min Rain = 0
KOES 191320Z 33007KT M01/M04 A3024 RMK A01 T10051040  RH  078%=      5-min Rain = 0
KOES 191325Z 32007KT M01/M04 A3024 RMK A01 T10071040  RH  078%=      5-min Rain = 0
KOES 191330Z 31007KT M01/M04 A3025 RMK A01 T10091041  RH  079%=      5-min Rain = 0
KOES 191335Z 31007KT M01/M04 A3025 RMK A01 T10101041  RH  080%=      5-min Rain = 0
KOES 191340Z 30008KT M01/M04 A3025 RMK A01 T10111041  RH  081%=      5-min Rain = 0
KOES 191345Z 30007KT M01/M04 A3025 RMK A01 T10131041  RH  081%=      5-min Rain = 0
KOES 191350Z 30008KT M01/M04 A3025 RMK A01 T10131041  RH  082%=      5-min Rain = 0
KOES 191355Z 30009KT M01/M04 A3026 RMK A01 T10111040  RH  081%=      5-min Rain = 0
KOES 191400Z 30009KT M01/M04 A3026 RMK A01 T10091039  RH  081%=      5-min Rain = 0
KOES 191405Z 30009KT M01/M04 A3026 RMK A01 T10071039  RH  079%=      5-min Rain = 0
KOES 191410Z 30009KT M01/M04 A3027 RMK A01 T10051038  RH  078%=      5-min Rain = 0
KOES 191415Z 31009KT M00/M04 A3027 RMK A01 T10031038  RH  078%=      5-min Rain = 0
KOES 191420Z 31009KT 00/M04 A3027 RMK A01 T00011037  RH  076%=      5-min Rain = 0
KOES 191425Z 31010KT 00/M04 A3027 RMK A01 T00041036  RH  075%=      5-min Rain = 0
KOES 191430Z 31010KT 01/M04 A3028 RMK A01 T00061036  RH  074%=      5-min Rain = 0
KOES 191435Z 31009KT 01/M04 A3028 RMK A01 T00081035  RH  074%=      5-min Rain = 0
KOES 191440Z 31009KT 01/M03 A3028 RMK A01 T00101034  RH  073%=      5-min Rain = 0
KOES 191445Z 31009KT 01/M03 A3028 RMK A01 T00121032  RH  073%=      5-min Rain = 0
KOES 191450Z 31009KT 02/M03 A3029 RMK A01 T00161031  RH  072%=      5-min Rain = 0
KOES 191455Z 32010KT 02/M03 A3029 RMK A01 T00191030  RH  070%=      5-min Rain = 0
KOES 191500Z 32011G16KT 02/M03 A3029 RMK A01 T00231030  RH  068%=      5-min Rain = 0
KOES 191505Z 32014KT 03/M03 A3029 RMK A01 T00261031  RH  067%=      5-min Rain = 0
KOES 191510Z 32012KT 03/M03 A303 RMK A01 T00301030  RH  066%=      5-min Rain = 0
KOES 191515Z 32015KT 03/M03 A303 RMK A01 T00321031  RH  064%=      5-min Rain = 0
KOES 191520Z 32016G21KT 04/M03 A303 RMK A01 T00351032  RH  062%=      5-min Rain = 0
KOES 191525Z 32016KT 04/M03 A303 RMK A01 T00391032  RH  060%=      5-min Rain = 0
KOES 191530Z 33016G22KT 04/M03 A3031 RMK A01 T00421033  RH  059%=      5-min Rain = 0
KOES 191535Z 32017G23KT 04/M03 A3031 RMK A01 T00441034  RH  058%=      5-min Rain = 0
KOES 191540Z 33016G21KT 05/M03 A3032 RMK A01 T00471034  RH  056%=      5-min Rain = 0
KOES 191545Z 33018G26KT 05/M04 A3032 RMK A01 T00491036  RH  055%=      5-min Rain = 0
KOES 191550Z 33020G27KT 05/M04 A3032 RMK A01 T00511039  RH  052%=      5-min Rain = 0
KOES 191555Z 34019G25KT 05/M04 A3032 RMK A01 T00541039  RH  051%=      5-min Rain = 0
KOES 191600Z 34020G25KT 06/M04 A3032 RMK A01 T00561041  RH  050%=      5-min Rain = 0
KOES 191605Z 34021G26KT 06/M04 A3032 RMK A01 T00561041  RH  050%=      5-min Rain = 0
KOES 191610Z 34021G26KT 06/M04 A3032 RMK A01 T00571042  RH  049%=      5-min Rain = 0
KOES 191615Z 34019G25KT 06/M04 A3032 RMK A01 T00591040  RH  049%=      5-min Rain = 0
KOES 191620Z 35019G25KT 06/M04 A3032 RMK A01 T00631039  RH  048%=      5-min Rain = 0
KOES 191625Z 35019G26KT 06/M04 A3032 RMK A01 T00631040  RH  048%=      5-min Rain = 0
KOES 191630Z 35019G25KT 07/M04 A3032 RMK A01 T00661040  RH  047%=      5-min Rain = 0
KOES 191635Z 35020G25KT 07/M04 A3032 RMK A01 T00681042  RH  046%=      5-min Rain = 0
KOES 191640Z 36018KT 07/M04 A3032 RMK A01 T00711042  RH  045%=      5-min Rain = 0
KOES 191645Z 35019G26KT 07/M04 A3032 RMK A01 T00731044  RH  044%=      5-min Rain = 0
KOES 191650Z 35019KT 07/M05 A3032 RMK A01 T00721045  RH  043%=      5-min Rain = 0
KOES 191655Z 35018G23KT 07/M05 A3033 RMK A01 T00741046  RH  043%=      5-min Rain = 0
KOES 191700Z 35019G24KT 08/M05 A3033 RMK A01 T00751046  RH  042%=      5-min Rain = 0
KOES 191705Z 35018G23KT 08/M05 A3033 RMK A01 T00771046  RH  042%=      5-min Rain = 0
KOES 191710Z 35018G23KT 08/M05 A3033 RMK A01 T00801046  RH  041%=      5-min Rain = 0
KOES 191715Z 36018G23KT 08/M05 A3033 RMK A01 T00811047  RH  040%=      5-min Rain = 0
KOES 191720Z 35018G23KT 08/M05 A3033 RMK A01 T00831048  RH  039%=      5-min Rain = 0
KOES 191725Z 36018KT 08/M05 A3033 RMK A01 T00841046  RH  040%=      5-min Rain = 0
KOES 191730Z 35018G23KT 09/M05 A3033 RMK A01 T00861047  RH  039%=      5-min Rain = 0
KOES 191735Z 36018KT 09/M05 A3033 RMK A01 T00871047  RH  039%=      5-min Rain = 0
KOES 191740Z 34016G22KT 09/M05 A3033 RMK A01 T00881045  RH  039%=      5-min Rain = 0
KOES 191745Z 34017KT 09/M05 A3033 RMK A01 T00901046  RH  038%=      5-min Rain = 0
KOES 191750Z 35016G21KT 09/M05 A3033 RMK A01 T00901046  RH  038%=      5-min Rain = 0
KOES 191755Z 34017KT 09/M05 A3033 RMK A01 T00931046  RH  037%=      5-min Rain = 0
KOES 191800Z 34016G24KT 10/M05 A3033 RMK A01 T00951048  RH  036%=      5-min Rain = 0
KOES 191805Z 35020KT 10/M05 A3033 RMK A01 T00961051  RH  035%=      5-min Rain = 0
KOES 191810Z 35017KT 10/M05 A3033 RMK A01 T01001049  RH  035%=      5-min Rain = 0
KOES 191815Z 35016G22KT 10/M05 A3033 RMK A01 T01011049  RH  034%=      5-min Rain = 0
KOES 191820Z 35016G22KT 10/M05 A3032 RMK A01 T01031049  RH  034%=      5-min Rain = 0
KOES 191825Z 35016G22KT 10/M05 A3032 RMK A01 T01041049  RH  034%=      5-min Rain = 0
KOES 191830Z 35017G23KT 10/M05 A3032 RMK A01 T01041048  RH  034%=      5-min Rain = 0
KOES 191835Z 34016G21KT 10/M05 A3031 RMK A01 T01041050  RH  033%=      5-min Rain = 0
KOES 191840Z 34018G23KT 10/M05 A3031 RMK A01 T01041051  RH  033%=      5-min Rain = 0
KOES 191845Z 34016G21KT 11/M05 A3031 RMK A01 T01051049  RH  034%=      5-min Rain = 0
KOES 191850Z 34015KT 11/M05 A3031 RMK A01 T01071049  RH  033%=      5-min Rain = 0
KOES 191855Z 33016G21KT 11/M05 A3031 RMK A01 T01071049  RH  033%=      5-min Rain = 0
KOES 191900Z 33016G21KT 11/M05 A303 RMK A01 T01071049  RH  033%=      5-min Rain = 0
KOES 191905Z 33015G21KT 11/M05 A303 RMK A01 T01051049  RH  034%=      5-min Rain = 0
KOES 191910Z 34015G21KT 11/M05 A303 RMK A01 T01071047  RH  034%=      5-min Rain = 0
KOES 191915Z 33016G21KT 11/M05 A303 RMK A01 T01101048  RH  033%=      5-min Rain = 0
KOES 191920Z 32017KT 11/M05 A303 RMK A01 T01091049  RH  033%=      5-min Rain = 0
KOES 191925Z 34017G27KT 11/M05 A303 RMK A01 T01111047  RH  033%=      5-min Rain = 0
KOES 191930Z 33017G24KT 11/M05 A303 RMK A01 T01111048  RH  032%=      5-min Rain = 0
KOES 191935Z 34017G27KT 11/M05 A3029 RMK A01 T01121048  RH  032%=      5-min Rain = 0
KOES 191940Z 34016G21KT 11/M05 A3029 RMK A01 T01131047  RH  032%=      5-min Rain = 0
KOES 191945Z 34017G23KT 11/M05 A3029 RMK A01 T01141047  RH  032%=      5-min Rain = 0
KOES 191950Z 35015KT 11/M05 A3029 RMK A01 T01131046  RH  033%=      5-min Rain = 0
KOES 191955Z 34017KT 11/M05 A3029 RMK A01 T01141045  RH  033%=      5-min Rain = 0
KOES 192000Z 34016G22KT 12/M05 A3028 RMK A01 T01161046  RH  032%=      5-min Rain = 0
KOES 192005Z 34014KT 12/M05 A3028 RMK A01 T01161047  RH  032%=      5-min Rain = 0
KOES 192010Z 34014G20KT 12/M05 A3028 RMK A01 T01161046  RH  032%=      5-min Rain = 0
KOES 192015Z 33015G25KT 12/M05 A3028 RMK A01 T01171046  RH  032%=      5-min Rain = 0
KOES 192020Z 33018G25KT 12/M05 A3028 RMK A01 T01191049  RH  031%=      5-min Rain = 0
KOES 192025Z 32013G18KT 12/M05 A3027 RMK A01 T01191048  RH  031%=      5-min Rain = 0
KOES 192030Z 33015G22KT 12/M05 A3027 RMK A01 T01191049  RH  031%=      5-min Rain = 0
KOES 192035Z 32016KT 12/M05 A3027 RMK A01 T01201050  RH  030%=      5-min Rain = 0
KOES 192040Z 31015G20KT 12/M05 A3027 RMK A01 T01201048  RH  031%=      5-min Rain = 0
KOES 192045Z 32013G18KT 12/M05 A3027 RMK A01 T01221046  RH  031%=      5-min Rain = 0
KOES 192050Z 32016G22KT 12/M05 A3026 RMK A01 T01221049  RH  030%=      5-min Rain = 0
KOES 192055Z 31015G21KT 12/M05 A3026 RMK A01 T01201048  RH  031%=      5-min Rain = 0
KOES 192100Z 32014G19KT 12/M05 A3026 RMK A01 T01221049  RH  030%=      5-min Rain = 0
KOES 192105Z 32015G21KT 13/M05 A3026 RMK A01 T01251049  RH  029%=      5-min Rain = 0
KOES 192110Z 31014KT 13/M05 A3026 RMK A01 T01251050  RH  029%=      5-min Rain = 0
KOES 192115Z 32013KT 12/M05 A3026 RMK A01 T01221051  RH  030%=      5-min Rain = 0
KOES 192120Z 32014G20KT 12/M05 A3026 RMK A01 T01231051  RH  029%=      5-min Rain = 0
KOES 192125Z 31015G21KT 12/M05 A3025 RMK A01 T01241052  RH  029%=      5-min Rain = 0
KOES 192130Z 33013G19KT 13/M05 A3025 RMK A01 T01251052  RH  029%=      5-min Rain = 0
KOES 192135Z 32014G21KT 13/M05 A3025 RMK A01 T01271053  RH  028%=      5-min Rain = 0
KOES 192140Z 31014KT 13/M05 A3025 RMK A01 T01251052  RH  029%=      5-min Rain = 0
KOES 192145Z 32014G19KT 13/M06 A3026 RMK A01 T01251055  RH  028%=      5-min Rain = 0
KOES 192150Z 31014G19KT 13/M05 A3026 RMK A01 T01251054  RH  028%=      5-min Rain = 0
KOES 192155Z 31016G23KT 13/M05 A3026 RMK A01 T01251053  RH  029%=      5-min Rain = 0
KOES 192200Z 32014G19KT 13/M05 A3026 RMK A01 T01251054  RH  028%=      5-min Rain = 0
KOES 192205Z 31014KT 13/M05 A3026 RMK A01 T01251052  RH  029%=      5-min Rain = 0
KOES 192210Z 32012G17KT 13/M05 A3026 RMK A01 T01261053  RH  028%=      5-min Rain = 0
KOES 192215Z 33012KT 13/M05 A3025 RMK A01 T01251053  RH  029%=      5-min Rain = 0
KOES 192220Z 33013KT 13/M06 A3025 RMK A01 T01251055  RH  028%=      5-min Rain = 0
KOES 192225Z 33011KT 13/M05 A3025 RMK A01 T01251052  RH  029%=      5-min Rain = 0
KOES 192230Z 31012KT 13/M05 A3025 RMK A01 T01261053  RH  028%=      5-min Rain = 0
KOES 192235Z 32011KT 12/M05 A3025 RMK A01 T01241052  RH  029%=      5-min Rain = 0
KOES 192240Z 32010KT 13/M05 A3026 RMK A01 T01251052  RH  029%=      5-min Rain = 0
KOES 192245Z 34011KT 12/M05 A3025 RMK A01 T01241052  RH  029%=      5-min Rain = 0
KOES 192250Z 35009G15KT 12/M05 A3026 RMK A01 T01241051  RH  029%=      5-min Rain = 0
KOES 192255Z 34011KT 12/M05 A3026 RMK A01 T01231051  RH  029%=      5-min Rain = 0
KOES 192300Z 35012KT 12/M05 A3026 RMK A01 T01221052  RH  029%=      5-min Rain = 0
KOES 192305Z 35011KT 12/M05 A3026 RMK A01 T01201051  RH  030%=      5-min Rain = 0
KOES 192310Z 35009KT 12/M05 A3025 RMK A01 T01201051  RH  030%=      5-min Rain = 0
KOES 192315Z 36010KT 12/M05 A3025 RMK A01 T01191053  RH  030%=      5-min Rain = 0
KOES 192320Z 36010KT 12/M05 A3025 RMK A01 T01171053  RH  030%=      5-min Rain = 0
KOES 192325Z 35010KT 12/M05 A3025 RMK A01 T01171054  RH  030%=      5-min Rain = 0
KOES 192330Z 36009KT 12/M05 A3025 RMK A01 T01151054  RH  030%=      5-min Rain = 0
KOES 192335Z 00009KT 11/M05 A3025 RMK A01 T01131054  RH  031%=      5-min Rain = 0
KOES 192340Z 01007KT 11/M05 A3025 RMK A01 T01121053  RH  031%=      5-min Rain = 0
KOES 192345Z 00006KT 11/M05 A3025 RMK A01 T01101053  RH  032%=      5-min Rain = 0
KOES 192350Z 36007KT 11/M05 A3025 RMK A01 T01071054  RH  032%=      5-min Rain = 0
KOES 192355Z 36006KT 10/M06 A3025 RMK A01 T01041055  RH  032%=      5-min Rain = 0
KOES 200000Z 36006KT 10/M06 A3026 RMK A01 T01001056  RH  033%=      5-min Rain = 0
KOES 200005Z 01006KT 10/M06 A3026 RMK A01 T00961056  RH  034%=      5-min Rain = 0
KOES 200010Z 01006KT 09/M06 A3026 RMK A01 T00901055  RH  036%=      5-min Rain = 0
KOES 200015Z 02005KT 09/M06 A3026 RMK A01 T00851056  RH  036%=      5-min Rain = 0
KOES 200020Z 03004KT 08/M06 A3026 RMK A01 T00811057  RH  037%=      5-min Rain = 0
KOES 200025Z 03004KT 08/M06 A3026 RMK A01 T00771058  RH  038%=      5-min Rain = 0
KOES 200030Z 03005KT 07/M06 A3026 RMK A01 T00731059  RH  039%=      5-min Rain = 0
KOES 200035Z 03006KT 07/M06 A3026 RMK A01 T00671059  RH  040%=      5-min Rain = 0
KOES 200040Z 03006KT 06/M06 A3026 RMK A01 T00621060  RH  041%=      5-min Rain = 0
KOES 200045Z 04006KT 06/M06 A3027 RMK A01 T00591060  RH  042%=      5-min Rain = 0
KOES 200050Z 04007KT 06/M06 A3027 RMK A01 T00571059  RH  043%=      5-min Rain = 0
KOES 200055Z 04007KT 06/M06 A3026 RMK A01 T00581056  RH  044%=      5-min Rain = 0
KOES 200100Z 05006KT 06/M05 A3027 RMK A01 T00571054  RH  045%=      5-min Rain = 0
KOES 200105Z 06005KT 06/M05 A3027 RMK A01 T00561054  RH  045%=      5-min Rain = 0
KOES 200110Z 06005KT 06/M06 A3027 RMK A01 T00561055  RH  045%=      5-min Rain = 0
KOES 200115Z 06005KT 05/M06 A3027 RMK A01 T00541058  RH  044%=      5-min Rain = 0
KOES 200120Z 06007KT 05/M06 A3027 RMK A01 T00511058  RH  046%=      5-min Rain = 0
KOES 200125Z 06007KT 05/M05 A3027 RMK A01 T00541054  RH  046%=      5-min Rain = 0
KOES 200130Z 06007KT 05/M05 A3027 RMK A01 T00531054  RH  046%=      5-min Rain = 0
KOES 200135Z 06008KT 05/M05 A3027 RMK A01 T00501053  RH  047%=      5-min Rain = 0
KOES 200140Z 07007KT 05/M05 A3027 RMK A01 T00471054  RH  048%=      5-min Rain = 0
KOES 200145Z 07007KT 04/M06 A3027 RMK A01 T00431055  RH  049%=      5-min Rain = 0
KOES 200150Z 08006KT 04/M06 A3027 RMK A01 T00391055  RH  050%=      5-min Rain = 0
KOES 200155Z 08006KT 04/M06 A3028 RMK A01 T00401055  RH  050%=      5-min Rain = 0
KOES 200200Z 07007KT 04/M05 A3027 RMK A01 T00411053  RH  050%=      5-min Rain = 0
KOES 200205Z 07008KT 04/M05 A3027 RMK A01 T00391054  RH  051%=      5-min Rain = 0
KOES 200210Z 07008KT 04/M06 A3026 RMK A01 T00371055  RH  051%=      5-min Rain = 0
KOES 200215Z 08007KT 04/M05 A3026 RMK A01 T00351054  RH  052%=      5-min Rain = 0
KOES 200220Z 08007KT 04/M06 A3026 RMK A01 T00351056  RH  052%=      5-min Rain = 0
KOES 200225Z 08006KT 03/M06 A3026 RMK A01 T00301056  RH  053%=      5-min Rain = 0
KOES 200230Z 07007KT 03/M06 A3026 RMK A01 T00301057  RH  053%=      5-min Rain = 0
KOES 200235Z 07006KT 03/M06 A3027 RMK A01 T00301055  RH  054%=      5-min Rain = 0
KOES 200240Z 07006KT 03/M06 A3027 RMK A01 T00291056  RH  054%=      5-min Rain = 0
KOES 200245Z 06006KT 03/M06 A3028 RMK A01 T00251060  RH  053%=      5-min Rain = 0
KOES 200250Z 06007KT 02/M06 A3028 RMK A01 T00231059  RH  054%=      5-min Rain = 0
KOES 200255Z 06005KT 02/M06 A3028 RMK A01 T00221059  RH  055%=      5-min Rain = 0
KOES 200300Z 05005KT 02/M06 A3029 RMK A01 T00211060  RH  055%=      5-min Rain = 0
KOES 200305Z 05004KT 02/M06 A3029 RMK A01 T00181059  RH  057%=      5-min Rain = 0
KOES 200310Z 06005KT 02/M06 A3029 RMK A01 T00171059  RH  057%=      5-min Rain = 0
KOES 200315Z 05005KT 02/M06 A303 RMK A01 T00171060  RH  057%=      5-min Rain = 0
KOES 200320Z 06004KT 02/M06 A303 RMK A01 T00171061  RH  056%=      5-min Rain = 0
KOES 200325Z 06004KT 02/M06 A3029 RMK A01 T00171061  RH  056%=      5-min Rain = 0
KOES 200330Z 07005KT 02/M06 A3028 RMK A01 T00171060  RH  057%=      5-min Rain = 0
KOES 200335Z 08006KT 02/M06 A3028 RMK A01 T00161056  RH  059%=      5-min Rain = 0
KOES 200340Z 08005KT 02/M06 A3028 RMK A01 T00161057  RH  059%=      5-min Rain = 0
KOES 200345Z 07004KT 02/M06 A3029 RMK A01 T00161059  RH  058%=      5-min Rain = 0
KOES 200350Z 09004KT 02/M06 A3028 RMK A01 T00151058  RH  058%=      5-min Rain = 0
KOES 200355Z 09005KT 02/M06 A3027 RMK A01 T00171057  RH  058%=      5-min Rain = 0
KOES 200400Z 09005KT 02/M05 A3028 RMK A01 T00231053  RH  058%=      5-min Rain = 0
KOES 200405Z 09005KT 02/M06 A3028 RMK A01 T00231055  RH  056%=      5-min Rain = 0
KOES 200410Z 09005KT 02/M06 A3027 RMK A01 T00241055  RH  056%=      5-min Rain = 0
KOES 200415Z 10005KT 02/M06 A3027 RMK A01 T00241055  RH  056%=      5-min Rain = 0
KOES 200420Z 10005KT 02/M06 A3028 RMK A01 T00221055  RH  057%=      5-min Rain = 0
KOES 200425Z 11005KT 02/M06 A3028 RMK A01 T00201055  RH  058%=      5-min Rain = 0
KOES 200430Z 12006KT 02/M05 A3028 RMK A01 T00181053  RH  059%=      5-min Rain = 0
KOES 200435Z 12005KT 02/M05 A3028 RMK A01 T00181053  RH  060%=      5-min Rain = 0
KOES 200440Z 12005KT 02/M05 A3028 RMK A01 T00171054  RH  060%=      5-min Rain = 0
KOES 200445Z 13006KT 02/M06 A3028 RMK A01 T00171057  RH  058%=      5-min Rain = 0
KOES 200450Z 14005KT 01/M06 A3029 RMK A01 T00141057  RH  059%=      5-min Rain = 0
KOES 200455Z 13006KT 01/M06 A3028 RMK A01 T00131057  RH  060%=      5-min Rain = 0
KOES 200500Z 13006KT 01/M06 A3028 RMK A01 T00141055  RH  060%=      5-min Rain = 0
KOES 200505Z 13005KT 02/M06 A3029 RMK A01 T00171055  RH  059%=      5-min Rain = 0
KOES 200510Z 12005KT 02/M05 A3029 RMK A01 T00181054  RH  059%=      5-min Rain = 0
KOES 200515Z 12005KT 02/M06 A3029 RMK A01 T00171055  RH  059%=      5-min Rain = 0
KOES 200520Z 12007KT 02/M06 A3029 RMK A01 T00181055  RH  059%=      5-min Rain = 0
KOES 200525Z 12007KT 02/M06 A303 RMK A01 T00171056  RH  059%=      5-min Rain = 0
KOES 200530Z 12005KT 02/M06 A303 RMK A01 T00161055  RH  059%=      5-min Rain = 0
KOES 200535Z 12006KT 02/M05 A3029 RMK A01 T00161054  RH  060%=      5-min Rain = 0
KOES 200540Z 12006KT 01/M06 A303 RMK A01 T00131055  RH  060%=      5-min Rain = 0
KOES 200545Z 11006KT 01/M06 A303 RMK A01 T00101056  RH  062%=      5-min Rain = 0
KOES 200550Z 12006KT 01/M05 A303 RMK A01 T00101054  RH  063%=      5-min Rain = 0
KOES 200555Z 13005KT 02/M05 A303 RMK A01 T00151054  RH  060%=      5-min Rain = 0

Page generated in 0.0213 seconds.